Time;durP1;ratioP1;P1;durP2;ratioP2;P2;SDS_P1;SDS_P2;PMS_P1;PMS_P2;Temp;Humidity;BMP_temperature;BMP_pressure;BME280_temperature;BME280_humidity;BME280_pressure;Samples;Min_cycle;Max_cycle;Signal;HPM_P1;HPM_P2
2022/08/15 00:01:08;;;;;;;5.82;2.50;;;;;;;23.90;45.99;98829.59;5000045;28;20100;-63
2022/08/15 00:03:59;;;;;;;5.00;2.30;;;;;;;23.89;46.16;98825.25;4999904;28;20104;-63
2022/08/15 00:06:45;;;;;;;3.72;1.92;;;;;;;23.88;46.18;98828.81;5000010;28;20164;-63
2022/08/15 00:09:32;;;;;;;5.45;2.22;;;;;;;23.88;46.13;98826.19;5014492;28;20053;-63
2022/08/15 00:12:22;;;;;;;4.93;2.63;;;;;;;23.89;46.06;98830.53;5014693;28;20153;-63
2022/08/15 00:15:09;;;;;;;5.25;2.28;;;;;;;23.89;46.24;98827.88;4999598;28;20044;-62
2022/08/15 00:17:53;;;;;;;4.43;1.83;;;;;;;23.89;46.22;98830.53;4999569;28;20049;-63
2022/08/15 00:20:37;;;;;;;6.22;2.78;;;;;;;23.90;46.32;98834.00;5014543;28;20052;-62
2022/08/15 00:23:26;;;;;;;6.63;2.90;;;;;;;23.88;46.24;98836.75;4999793;28;20052;-62
2022/08/15 00:26:14;;;;;;;6.68;2.42;;;;;;;23.88;46.20;98834.13;4999400;28;20135;-63
2022/08/15 00:29:02;;;;;;;5.28;2.55;;;;;;;23.87;46.44;98832.41;4999452;28;20455;-62
2022/08/15 00:31:58;;;;;;;7.53;2.80;;;;;;;23.85;46.34;98829.84;4999553;28;20079;-62
2022/08/15 00:34:45;;;;;;;5.57;2.72;;;;;;;23.84;46.19;98828.13;4999194;28;20049;-61
2022/08/15 00:37:33;;;;;;;5.28;2.78;;;;;;;23.83;46.26;98829.06;4999547;28;20054;-63
2022/08/15 00:40:19;;;;;;;5.00;3.13;;;;;;;23.83;46.14;98818.50;4999346;28;20212;-62
2022/08/15 00:43:04;;;;;;;4.43;2.70;;;;;;;23.83;46.27;98815.84;4999225;28;20096;-62
2022/08/15 00:45:49;;;;;;;6.72;2.92;;;;;;;23.84;46.19;98816.72;5014102;28;20092;-63
2022/08/15 00:48:42;;;;;;;3.25;2.10;;;;;;;23.83;46.19;98821.13;4999277;28;20044;-63
2022/08/15 00:51:46;;;;;;;9.02;2.55;;;;;;;23.80;46.40;98813.41;5013950;28;20068;-62
2022/08/15 00:54:38;;;;;;;3.92;2.22;;;;;;;23.82;46.44;98818.59;5013954;28;20173;-62
2022/08/15 00:57:31;;;;;;;7.50;2.78;;;;;;;23.79;46.41;98824.06;4998798;28;20049;-63
2022/08/15 01:00:25;;;;;;;6.20;2.53;;;;;;;23.79;46.44;98816.13;4999232;28;20100;-63
2022/08/15 01:03:26;;;;;;;5.80;2.22;;;;;;;23.78;46.30;98812.63;4992843;28;20058;-63
2022/08/15 01:06:10;;;;;;;3.92;1.92;;;;;;;23.77;46.39;98818.88;4994179;28;20397;-63
2022/08/15 01:08:57;;;;;;;3.22;2.10;;;;;;;23.78;46.74;98817.06;4994282;28;20045;-62
2022/08/15 01:11:56;;;;;;;3.92;2.47;;;;;;;23.78;46.60;98817.91;4993249;28;20049;-62
2022/08/15 01:14:48;;;;;;;4.85;2.20;;;;;;;23.76;46.51;98817.16;4994074;28;20136;-62
2022/08/15 01:17:35;;;;;;;5.57;2.53;;;;;;;23.76;46.41;98811.00;4993207;28;20134;-62
2022/08/15 01:20:28;;;;;;;5.10;2.45;;;;;;;23.76;46.65;98808.34;4996915;28;20054;-62
2022/08/15 01:23:51;;;;;;;11.03;2.67;;;;;;;23.75;46.46;98806.66;4997899;28;20138;-62
2022/08/15 01:26:40;;;;;;;4.65;2.65;;;;;;;23.74;46.56;98795.22;4994696;28;20288;-63
2022/08/15 01:29:27;;;;;;;5.30;2.30;;;;;;;23.72;46.98;98800.63;4998015;28;20045;-63
2022/08/15 01:33:42;;;;;;;5.13;2.53;;;;;;;23.70;46.59;98797.22;5111614;27;20673;-62
2022/08/15 01:36:31;;;;;;;5.55;2.63;;;;;;;23.70;46.93;98796.34;5110669;28;20505;-63
2022/08/15 01:39:24;;;;;;;3.67;2.22;;;;;;;23.70;46.80;98796.34;5110603;28;20571;-62
2022/08/15 01:42:29;;;;;;;4.30;2.50;;;;;;;23.69;46.88;98798.16;5110490;28;20101;-62
2022/08/15 01:45:18;;;;;;;;;;;;;;;23.65;46.71;98793.97;5111869;28;20399;-62
2022/08/15 01:48:10;;;;;;;2.88;2.28;;;;;;;23.65;47.23;98798.44;5111018;28;20008;-64
2022/08/15 01:51:02;;;;;;;3.22;2.38;;;;;;;23.65;47.15;98801.91;5110495;28;20047;-63
2022/08/15 01:53:56;;;;;;;5.78;2.55;;;;;;;23.65;47.14;98798.44;5109798;28;20055;-64
2022/08/15 01:56:47;;;;;;;3.80;2.38;;;;;;;23.65;47.23;98793.13;5110908;28;20411;-64
2022/08/15 01:59:32;;;;;;;4.15;2.30;;;;;;;23.65;46.86;98795.78;5110141;28;20100;-62
2022/08/15 02:02:22;;;;;;;3.38;2.10;;;;;;;23.65;46.94;98791.31;5110956;28;20043;-62
2022/08/15 02:05:09;;;;;;;5.53;2.97;;;;;;;23.65;46.95;98782.56;5109997;28;20086;-62
2022/08/15 02:07:56;;;;;;;5.28;2.53;;;;;;;23.65;47.25;98793.13;5110719;28;20066;-63
2022/08/15 02:10:43;;;;;;;4.03;2.08;;;;;;;23.65;47.26;98791.31;5109844;28;20104;-63
2022/08/15 02:13:33;;;;;;;4.78;2.85;;;;;;;23.64;47.24;98792.25;5109994;28;20043;-62
2022/08/15 02:16:22;;;;;;;6.53;2.47;;;;;;;23.65;47.19;98791.31;5109888;28;20525;-63
2022/08/15 02:19:10;;;;;;;4.00;1.85;;;;;;;23.64;47.14;98781.69;5110092;28;20109;-64
2022/08/15 02:21:57;;;;;;;5.53;2.45;;;;;;;23.62;47.28;98788.03;5109590;28;20046;-63
2022/08/15 02:24:43;;;;;;;4.43;2.50;;;;;;;23.61;47.55;98792.44;5109767;28;20043;-62
2022/08/15 02:27:33;;;;;;;5.63;2.35;;;;;;;23.61;47.41;98795.09;5109730;28;20105;-62
2022/08/15 02:30:20;;;;;;;2.95;2.08;;;;;;;23.62;47.65;98790.66;5110560;28;20054;-61
2022/08/15 02:33:13;;;;;;;3.20;2.13;;;;;;;23.61;47.64;98787.16;5108899;28;20144;-62
2022/08/15 02:35:58;;;;;;;7.53;2.47;;;;;;;23.61;47.61;98792.44;5110396;28;20169;-62
2022/08/15 02:38:48;;;;;;;5.50;2.15;;;;;;;23.62;47.58;98785.38;5110169;28;20050;-62
2022/08/15 02:41:42;;;;;;;4.32;2.50;;;;;;;23.60;47.66;98789.91;5110359;28;20047;-64
2022/08/15 02:44:31;;;;;;;4.43;2.60;;;;;;;23.60;47.48;98792.53;5098942;28;20046;-63
2022/08/15 02:49:47;;;;;;;5.95;2.40;;;;;;;23.59;47.56;98786.38;5131985;27;20357;-62
2022/08/15 02:52:38;;;;;;;4.05;2.38;;;;;;;23.58;48.04;98790.00;5131980;28;20060;-62
2022/08/15 02:55:25;;;;;;;3.17;2.20;;;;;;;23.59;47.78;98780.25;5116526;28;20169;-62
2022/08/15 02:58:16;;;;;;;7.65;2.40;;;;;;;23.59;47.93;98781.09;5116441;28;20062;-62
2022/08/15 03:01:06;;;;;;;4.40;2.53;;;;;;;23.59;47.80;98778.44;5131854;28;20468;-62
2022/08/15 03:03:56;;;;;;;3.92;2.45;;;;;;;23.57;47.90;98786.47;5132015;28;20100;-63
2022/08/15 03:06:43;;;;;;;4.22;2.58;;;;;;;23.57;48.10;98781.19;5131826;28;20077;-62
2022/08/15 03:09:27;;;;;;;4.35;2.60;;;;;;;23.57;48.30;98780.34;5131596;28;20047;-62
2022/08/15 03:12:16;;;;;;;4.88;2.58;;;;;;;23.58;48.15;98776.78;5131518;28;20073;-62
2022/08/15 03:15:03;;;;;;;3.30;1.90;;;;;;;23.56;48.25;98776.84;5131461;28;20050;-62
2022/08/15 03:17:52;;;;;;;6.00;2.50;;;;;;;23.56;48.09;98773.38;5116194;28;20096;-62
2022/08/15 03:20:46;;;;;;;4.47;2.22;;;;;;;23.56;47.97;98779.50;5116350;28;20048;-64
2022/08/15 03:23:33;;;;;;;;;;;;;;;23.56;47.96;98776.00;5131735;28;20062;-61
2022/08/15 03:26:21;;;;;;;6.78;2.28;;;;;;;23.55;48.14;98782.22;5115805;28;19957;-64
2022/08/15 03:29:06;;;;;;;3.83;2.42;;;;;;;23.55;48.33;98780.44;5131080;28;20078;-63
2022/08/15 03:31:53;;;;;;;4.38;2.70;;;;;;;23.58;48.48;98782.06;5131878;28;20050;-64
2022/08/15 03:34:40;;;;;;;8.10;2.33;;;;;;;23.56;48.46;98779.50;5116102;28;20108;-62
2022/08/15 03:37:24;;;;;;;5.38;2.22;;;;;;;23.57;48.21;98772.44;5115589;28;20401;-63
2022/08/15 03:40:12;;;;;;;4.53;2.75;;;;;;;23.56;48.24;98773.38;5131227;28;20046;-63
2022/08/15 03:43:00;;;;;;;6.40;2.47;;;;;;;23.55;48.28;98774.31;5115560;28;20077;-63
2022/08/15 03:45:50;;;;;;;5.43;2.40;;;;;;;23.54;48.33;98784.00;5130959;28;20098;-62
2022/08/15 03:48:49;;;;;;;3.47;2.33;;;;;;;23.53;48.51;98786.75;5115103;28;20138;-62
2022/08/15 03:51:40;;;;;;;6.07;2.38;;;;;;;23.50;48.53;98787.78;5130519;28;20127;-63
2022/08/15 03:54:26;;;;;;;5.35;2.50;;;;;;;23.47;48.91;98790.59;5130911;28;20047;-63
2022/08/15 03:57:10;;;;;;;4.20;2.67;;;;;;;23.42;48.77;98790.88;5130516;28;20054;-62
2022/08/15 03:59:54;;;;;;;3.58;2.40;;;;;;;23.41;48.52;98791.81;5123857;28;20050;-63
2022/08/15 04:02:38;;;;;;;;;;;;;;;23.40;48.43;98787.47;5117435;28;20563;-63
2022/08/15 04:05:22;;;;;;;3.80;2.63;;;;;;;23.39;48.75;98783.13;5116799;28;20401;-62
2022/08/15 04:08:08;;;;;;;;;;;;;;;23.38;48.56;98778.78;5117126;28;20517;-62
2022/08/15 04:10:55;;;;;;;8.32;2.42;;;;;;;23.39;49.01;98776.97;5101623;28;19922;-62
2022/08/15 04:13:39;;;;;;;7.57;2.35;;;;;;;23.39;49.00;98779.59;5101475;28;20054;-62
2022/08/15 04:16:28;;;;;;;4.82;3.25;;;;;;;23.37;48.92;98787.63;5116519;28;20043;-62
2022/08/15 04:19:15;;;;;;;6.50;2.53;;;;;;;23.39;48.92;98792.81;5101336;28;20070;-62
2022/08/15 04:22:06;;;;;;;4.07;2.42;;;;;;;23.38;49.10;98792.00;5101367;28;20499;-62
2022/08/15 04:24:55;;;;;;;5.03;2.55;;;;;;;23.39;49.05;98801.63;5116357;28;20054;-62
2022/08/15 04:27:40;;;;;;;4.18;2.75;;;;;;;23.38;49.27;98804.34;5116472;28;20398;-61
2022/08/15 04:30:28;;;;;;;5.35;2.97;;;;;;;23.37;49.39;98799.97;5116629;28;20511;-62
2022/08/15 04:33:21;;;;;;;2.95;2.10;;;;;;;23.35;49.18;98805.38;5116608;28;20066;-63
2022/08/15 04:36:15;;;;;;;3.72;2.20;;;;;;;23.34;49.48;98808.94;5101148;28;20148;-61
2022/08/15 04:39:02;;;;;;;6.00;2.60;;;;;;;23.33;49.51;98807.25;5100811;28;20134;-61
2022/08/15 04:41:52;;;;;;;3.55;2.80;;;;;;;23.31;49.68;98809.13;5101004;28;20500;-61
2022/08/15 04:44:39;;;;;;;5.40;2.85;;;;;;;23.31;49.85;98814.41;5101027;28;20059;-63
2022/08/15 04:47:26;;;;;;;8.88;2.97;;;;;;;23.31;49.84;98824.13;5100143;28;20445;-62
2022/08/15 04:50:11;;;;;;;4.40;2.67;;;;;;;23.31;49.82;98824.13;5100839;28;20163;-62
2022/08/15 04:53:04;;;;;;;5.32;2.88;;;;;;;23.29;49.89;98824.19;5115985;28;20047;-61
2022/08/15 04:55:55;;;;;;;9.30;2.83;;;;;;;23.31;49.79;98826.78;5115722;28;20555;-61
2022/08/15 04:58:39;;;;;;;6.43;3.70;;;;;;;23.28;50.02;98819.84;5116066;28;20444;-61
2022/08/15 05:01:28;;;;;;;6.38;3.28;;;;;;;23.27;50.03;98826.94;5116045;28;20046;-62
2022/08/15 05:04:15;;;;;;;4.35;2.63;;;;;;;23.27;50.44;98831.41;5115966;28;20046;-61
2022/08/15 05:07:02;;;;;;;5.97;2.88;;;;;;;23.29;50.53;98836.59;5115395;28;20050;-61
2022/08/15 05:09:49;;;;;;;4.00;2.58;;;;;;;23.29;50.67;98832.13;5100188;28;20529;-61
2022/08/15 05:14:51;;;;;;;4.85;2.60;;;;;;;23.26;50.85;98827.88;5027685;27;20850;-61
2022/08/15 05:17:35;;;;;;;5.60;3.45;;;;;;;23.23;51.00;98829.84;5027750;28;20060;-61
2022/08/15 05:20:21;;;;;;;8.15;4.07;;;;;;;23.20;51.01;98824.69;5027435;28;20053;-61
2022/08/15 05:23:08;;;;;;;8.57;3.15;;;;;;;23.17;51.37;98828.38;5027464;28;20052;-61
2022/08/15 05:25:55;;;;;;;5.13;3.15;;;;;;;23.15;51.53;98832.03;5012378;28;20052;-61
2022/08/15 05:28:45;;;;;;;7.93;3.42;;;;;;;23.14;51.54;98827.66;5012709;28;20121;-61
2022/08/15 05:34:02;;;;;;;4.20;3.17;;;;;;;23.11;51.89;98821.66;5173685;27;20259;-61
2022/08/15 05:36:50;;;;;;;7.35;3.47;;;;;;;23.12;51.81;98823.31;5174101;27;20045;-61
2022/08/15 05:39:38;;;;;;;9.82;3.22;;;;;;;23.11;51.88;98821.66;5173872;27;20053;-61
2022/08/15 05:42:35;;;;;;;6.95;3.60;;;;;;;23.14;51.80;98830.31;5157831;27;20460;-61
2022/08/15 05:45:37;;;;;;;6.72;3.58;;;;;;;23.10;51.88;98833.16;5173366;27;20508;-61
2022/08/15 05:48:29;;;;;;;7.82;3.45;;;;;;;23.09;52.09;98834.09;5157721;27;20046;-62
2022/08/15 05:51:33;;;;;;;4.82;3.25;;;;;;;23.09;52.08;98831.44;5157716;27;20046;-61
2022/08/15 05:54:53;;;;;;;6.13;3.80;;;;;;;23.08;51.91;98836.78;5173208;27;20401;-61
2022/08/15 06:00:01;;;;;;;6.45;3.10;;;;;;;23.06;52.29;98836.88;5111447;27;20606;-62
2022/08/15 06:03:06;;;;;;;5.95;4.03;;;;;;;23.06;52.19;98841.31;5111669;28;20434;-63
2022/08/15 06:06:04;;;;;;;6.53;3.72;;;;;;;23.04;52.40;98837.91;5111174;28;20399;-63
2022/08/15 06:08:53;;;;;;;4.72;3.42;;;;;;;23.04;52.53;98832.63;5110764;28;20104;-63
2022/08/15 06:11:43;;;;;;;6.50;3.40;;;;;;;23.03;52.65;98836.22;5110510;28;20039;-63
2022/08/15 06:14:36;;;;;;;8.20;3.40;;;;;;;23.01;52.73;98832.81;5110568;28;20089;-63
2022/08/15 06:17:28;;;;;;;7.40;3.97;;;;;;;23.00;52.82;98831.09;5111463;28;20082;-63
2022/08/15 06:20:19;;;;;;;6.82;3.17;;;;;;;22.98;52.73;98828.50;5110372;28;20132;-63
2022/08/15 06:23:18;;;;;;;5.70;3.45;;;;;;;22.97;53.00;98832.09;5110266;28;20051;-62
2022/08/15 06:26:41;;;;;;;8.60;3.72;;;;;;;22.98;53.14;98831.16;5110260;28;20403;-63
2022/08/15 06:29:31;;;;;;;7.57;3.60;;;;;;;23.00;53.43;98825.81;5111139;28;20058;-63
2022/08/15 06:32:44;;;;;;;6.68;3.28;;;;;;;23.01;53.37;98824.88;5109930;28;20525;-62
2022/08/15 06:35:50;;;;;;;9.52;3.97;;;;;;;23.00;53.64;98831.94;5109967;28;20047;-61
2022/08/15 06:38:48;;;;;;;11.80;3.75;;;;;;;23.01;53.50;98832.81;5109637;28;20100;-61
2022/08/15 06:42:07;;;;;;;7.38;3.83;;;;;;;22.98;53.57;98825.03;5109799;28;20055;-61
2022/08/15 06:44:59;;;;;;;5.55;4.13;;;;;;;22.98;53.99;98817.94;5066295;28;20078;-61
2022/08/15 06:47:45;;;;;;;6.03;3.95;;;;;;;22.96;53.98;98819.84;5110759;28;20081;-61
2022/08/15 06:50:46;;;;;;;7.68;3.60;;;;;;;22.99;53.92;98832.03;5109731;28;20510;-61
2022/08/15 06:53:39;;;;;;;7.32;3.53;;;;;;;22.97;53.97;98834.72;5109410;28;20043;-61
2022/08/15 06:56:27;;;;;;;6.80;3.92;;;;;;;22.99;54.22;98835.50;5110617;28;20135;-61
2022/08/15 06:59:26;;;;;;;8.60;3.95;;;;;;;22.99;53.85;98832.03;5108964;28;20105;-61
2022/08/15 07:02:33;;;;;;;7.70;4.13;;;;;;;22.98;54.21;98831.16;5109553;28;20062;-61
2022/08/15 07:05:41;;;;;;;6.65;3.80;;;;;;;22.98;54.05;98831.16;5109718;28;20050;-62
2022/08/15 07:08:31;;;;;;;7.07;4.53;;;;;;;22.98;54.11;98831.16;5110133;28;20051;-63
2022/08/15 07:11:20;;;;;;;6.68;3.85;;;;;;;22.99;54.12;98834.66;5095711;28;20085;-61
2022/08/15 07:14:27;;;;;;;5.93;4.10;;;;;;;22.98;54.41;98830.31;5095737;28;20079;-64
2022/08/15 07:17:25;;;;;;;7.25;4.00;;;;;;;22.95;54.14;98834.00;5095584;28;20059;-63
2022/08/15 07:20:09;;;;;;;5.57;4.28;;;;;;;22.92;54.45;98828.88;5095636;28;20086;-63
2022/08/15 07:22:59;;;;;;;9.10;5.30;;;;;;;22.90;54.34;98828.09;5096105;28;20043;-62
2022/08/15 07:25:49;;;;;;;7.97;3.85;;;;;;;22.90;54.13;98836.84;5096230;28;20074;-63
2022/08/15 07:28:35;;;;;;;7.28;4.22;;;;;;;22.88;54.74;98824.69;5095422;28;20521;-62
2022/08/15 07:31:29;;;;;;;7.63;4.15;;;;;;;22.87;54.39;98830.91;5095561;28;20051;-63
2022/08/15 07:34:25;;;;;;;6.70;3.60;;;;;;;22.86;54.57;98826.53;5095385;28;20059;-62
2022/08/15 07:37:20;;;;;;;8.57;4.57;;;;;;;22.87;54.55;98825.63;5095081;28;20332;-62
2022/08/15 07:40:24;;;;;;;6.93;4.00;;;;;;;22.87;54.72;98830.91;5096180;28;20447;-62
2022/08/15 07:43:31;;;;;;;7.72;4.18;;;;;;;22.85;54.77;98824.84;5094063;28;20105;-61
2022/08/15 07:46:21;;;;;;;8.20;4.45;;;;;;;22.86;54.78;98830.06;5094989;28;20058;-62
2022/08/15 07:49:24;;;;;;;6.45;3.90;;;;;;;22.86;54.56;98829.19;5094986;28;20127;-63
2022/08/15 07:52:15;;;;;;;5.28;4.18;;;;;;;22.85;54.95;98827.47;5095058;28;20429;-63
2022/08/15 07:55:21;;;;;;;6.38;4.35;;;;;;;22.84;54.70;98828.41;5094970;28;20403;-63
2022/08/15 07:58:18;;;;;;;5.50;3.65;;;;;;;22.80;54.94;98833.88;5094218;28;20067;-62
2022/08/15 08:01:11;;;;;;;5.93;4.00;;;;;;;22.81;54.63;98835.56;5094683;28;20051;-62
2022/08/15 08:04:01;;;;;;;7.43;4.25;;;;;;;22.80;54.99;98838.28;5095565;28;20383;-63
2022/08/15 08:06:52;;;;;;;5.93;3.67;;;;;;;22.78;54.93;98838.41;5094799;28;20058;-63
2022/08/15 08:09:43;;;;;;;7.22;4.07;;;;;;;22.79;54.76;98834.81;5094629;28;20093;-61
2022/08/15 08:12:47;;;;;;;7.13;4.30;;;;;;;22.78;54.80;98838.41;5094392;28;20093;-61
2022/08/15 08:16:01;;;;;;;7.75;4.65;;;;;;;22.79;55.08;98837.47;5094542;28;20092;-62
2022/08/15 08:19:14;;;;;;;5.72;3.63;;;;;;;22.80;54.82;98840.94;5094782;28;20552;-62
2022/08/15 08:22:27;;;;;;;6.35;3.63;;;;;;;22.83;54.91;98845.19;5093414;28;20070;-62
2022/08/15 08:25:29;;;;;;;8.35;3.47;;;;;;;22.80;54.91;98849.72;5094406;28;20465;-61
2022/08/15 08:28:27;;;;;;;7.20;4.53;;;;;;;22.80;54.97;98848.88;5094372;28;20089;-63
2022/08/15 08:31:40;;;;;;;5.20;3.97;;;;;;;22.81;54.93;98848.78;5094838;28;20046;-62
2022/08/15 08:34:39;;;;;;;8.80;4.78;;;;;;;22.80;55.00;98855.00;5093734;28;20093;-63
2022/08/15 08:37:33;;;;;;;4.63;3.78;;;;;;;22.80;55.13;98862.94;5094131;28;20065;-64
2022/08/15 08:43:43;;;;;;;7.47;3.90;;;;;;;22.78;55.10;98856.00;5094780;28;20085;-61
2022/08/15 08:47:01;;;;;;;8.88;3.97;;;;;;;22.76;55.11;98847.31;5093832;28;20039;-61
2022/08/15 08:50:02;;;;;;;6.65;4.18;;;;;;;22.76;55.12;98856.09;5093848;28;20513;-61
2022/08/15 08:52:59;;;;;;;5.97;4.32;;;;;;;22.76;55.17;98858.75;5093818;28;20066;-62
2022/08/15 08:56:13;;;;;;;6.95;4.20;;;;;;;22.75;55.13;98849.13;5094737;28;20051;-62
2022/08/15 08:59:02;;;;;;;8.35;4.35;;;;;;;22.76;55.25;98850.81;5094073;28;20055;-62
2022/08/15 09:01:56;;;;;;;8.07;4.13;;;;;;;22.77;55.13;98849.03;5093653;28;20051;-63
2022/08/15 09:04:50;;;;;;;6.53;4.05;;;;;;;22.76;55.22;98852.59;5093550;28;20054;-62
2022/08/15 09:07:40;;;;;;;6.07;4.22;;;;;;;22.75;55.34;98856.16;5094122;28;20104;-62
2022/08/15 09:10:34;;;;;;;8.73;4.28;;;;;;;22.73;55.32;98848.34;5093517;28;20059;-62
2022/08/15 09:13:33;;;;;;;7.45;4.28;;;;;;;22.75;55.27;98857.03;5094504;28;20070;-62
2022/08/15 09:16:34;;;;;;;7.18;4.25;;;;;;;22.76;55.27;98849.94;5093519;28;20523;-61
2022/08/15 09:19:44;;;;;;;6.15;4.30;;;;;;;22.76;55.26;98853.47;5093875;28;20127;-61
2022/08/15 09:22:29;;;;;;;6.55;4.03;;;;;;;22.78;55.41;98863.94;5093263;28;20093;-63
2022/08/15 09:25:12;;;;;;;6.30;4.13;;;;;;;22.79;55.51;98855.94;5094250;28;20445;-63
2022/08/15 09:28:20;;;;;;;;;;;;;;;22.79;55.27;98857.72;5094493;28;20399;-62
2022/08/15 09:31:20;;;;;;;6.80;3.92;;;;;;;22.79;55.37;98855.06;5093966;28;19919;-63
2022/08/15 09:34:32;;;;;;;9.40;4.50;;;;;;;22.79;55.37;98857.72;5092946;28;20100;-63
2022/08/15 09:37:27;;;;;;;12.20;4.47;;;;;;;22.83;55.58;98863.69;5092966;28;20046;-62
2022/08/15 09:40:38;;;;;;;7.68;5.00;;;;;;;22.80;55.34;98868.22;5093122;28;20075;-62
2022/08/15 09:43:28;;;;;;;8.05;4.40;;;;;;;;;;5093013;28;20422;-61
2022/08/15 09:46:37;;;;;;;6.78;4.47;;;;;;;22.79;55.44;98861.22;5093003;28;20047;-62
2022/08/15 09:49:27;;;;;;;7.18;4.05;;;;;;;22.80;55.65;98868.22;5093006;28;20054;-61
2022/08/15 09:52:26;;;;;;;7.78;4.63;;;;;;;22.80;55.60;98859.44;5093848;28;20561;-63
2022/08/15 09:55:20;;;;;;;8.93;4.47;;;;;;;22.80;55.85;98860.28;5093733;28;20039;-64
2022/08/15 09:58:23;;;;;;;6.03;4.30;;;;;;;;;;5093617;28;20078;-62
2022/08/15 10:01:28;;;;;;;9.70;4.53;;;;;;;22.79;55.59;98861.22;5093397;28;20047;-62
2022/08/15 10:04:17;;;;;;;6.00;4.60;;;;;;;22.79;55.88;98863.88;5093663;28;20055;-62
2022/08/15 10:07:01;;;;;;;8.25;4.93;;;;;;;22.80;55.89;98857.66;5093714;28;20051;-61
2022/08/15 10:10:00;;;;;;;7.10;4.45;;;;;;;22.81;55.68;98861.97;5093182;28;20112;-61
2022/08/15 10:13:06;;;;;;;8.50;4.85;;;;;;;22.83;55.70;98871.59;5092800;28;20058;-61
2022/08/15 10:15:53;;;;;;;9.60;4.47;;;;;;;22.84;55.74;98874.19;5092560;28;20085;-62
2022/08/15 10:18:46;;;;;;;7.47;3.63;;;;;;;22.86;55.99;98866.16;5093293;28;20113;-62
2022/08/15 10:21:40;;;;;;;8.30;4.90;;;;;;;22.86;55.92;98871.44;5093565;28;20059;-62
2022/08/15 10:24:32;;;;;;;5.60;3.53;;;;;;;22.85;55.87;98865.31;5092667;28;20056;-61
2022/08/15 10:27:22;;;;;;;6.45;4.18;;;;;;;22.86;56.16;98864.41;5093208;28;20050;-62
2022/08/15 10:30:18;;;;;;;10.98;4.57;;;;;;;22.87;56.05;98868.75;5093254;28;20113;-62
2022/08/15 10:33:33;;;;;;;6.63;4.22;;;;;;;22.88;55.85;98875.72;5092432;28;20046;-63
2022/08/15 10:36:35;;;;;;;7.97;4.65;;;;;;;22.88;56.08;98872.22;5092469;28;20104;-62
2022/08/15 10:39:48;;;;;;;7.55;4.47;;;;;;;22.89;55.98;98868.66;5092118;28;20047;-62
2022/08/15 10:42:47;;;;;;;8.98;4.53;;;;;;;22.87;56.33;98870.50;5092399;28;20078;-61
2022/08/15 10:45:41;;;;;;;6.47;4.22;;;;;;;22.88;56.09;98866.94;5094345;28;20058;-64
2022/08/15 10:48:25;;;;;;;7.43;4.72;;;;;;;22.89;56.27;98876.56;5096237;28;20418;-61
2022/08/15 10:51:31;;;;;;;7.47;4.63;;;;;;;22.89;56.11;98868.66;5096289;28;20414;-62
2022/08/15 10:54:43;;;;;;;6.40;4.25;;;;;;;22.92;56.09;98866.69;5096124;28;20075;-61
2022/08/15 10:57:36;;;;;;;6.45;4.47;;;;;;;22.93;56.33;98865.75;5095912;28;20066;-61
2022/08/15 11:00:44;;;;;;;7.73;4.03;;;;;;;22.93;56.00;98864.91;5096217;28;20101;-61
2022/08/15 11:03:40;;;;;;;7.68;4.65;;;;;;;22.94;56.26;98863.97;5095660;28;20106;-61
2022/08/15 11:06:25;;;;;;;7.13;4.25;;;;;;;22.94;56.12;98861.34;5096782;28;20047;-63
2022/08/15 11:09:14;;;;;;;8.95;5.15;;;;;;;22.95;56.43;98857.75;5096765;28;20388;-61
2022/08/15 11:12:05;;;;;;;5.45;4.07;;;;;;;22.95;56.24;98860.41;5096802;28;20059;-61
2022/08/15 11:15:00;;;;;;;8.32;4.78;;;;;;;22.96;56.12;98865.59;5095770;28;20043;-62
2022/08/15 11:17:46;;;;;;;6.20;3.97;;;;;;;22.98;56.30;98867.31;5096272;28;20062;-61
2022/08/15 11:20:49;;;;;;;7.53;4.13;;;;;;;22.99;56.03;98861.09;5095669;28;20051;-61
2022/08/15 11:23:40;;;;;;;9.75;4.53;;;;;;;23.00;56.16;98860.16;5095446;28;20109;-62
2022/08/15 11:26:30;;;;;;;7.65;4.30;;;;;;;23.02;56.18;98866.22;5096448;28;20105;-62
2022/08/15 11:29:16;;;;;;;6.50;3.92;;;;;;;23.01;56.12;98865.34;5095563;28;20081;-61
2022/08/15 11:32:01;;;;;;;6.72;4.82;;;;;;;23.02;55.96;98861.75;5095382;28;20514;-61
2022/08/15 11:34:47;;;;;;;5.20;3.78;;;;;;;23.02;56.01;98856.47;5096137;28;20051;-62
2022/08/15 11:37:40;;;;;;;7.13;3.58;;;;;;;23.03;55.88;98852.91;5095308;28;20097;-62
2022/08/15 11:40:35;;;;;;;6.80;4.78;;;;;;;23.04;56.10;98859.06;5095317;28;20093;-61
2022/08/15 11:43:22;;;;;;;6.15;4.18;;;;;;;23.01;56.04;98857.41;5096459;28;20062;-61
2022/08/15 11:46:07;;;;;;;8.18;4.70;;;;;;;23.02;56.08;98855.63;5095913;28;20051;-61
2022/08/15 11:49:04;;;;;;;5.72;4.07;;;;;;;23.03;55.93;98854.72;5096010;28;20043;-62
2022/08/15 11:51:51;;;;;;;7.80;4.65;;;;;;;23.04;56.15;98859.06;5095260;28;20117;-62
2022/08/15 11:54:35;;;;;;;6.35;4.55;;;;;;;23.04;56.00;98862.53;5095795;28;20051;-61
2022/08/15 11:57:22;;;;;;;7.70;5.07;;;;;;;23.04;56.04;98851.97;5095541;28;20490;-64
2022/08/15 12:00:13;;;;;;;6.45;4.05;;;;;;;23.04;56.05;98857.25;5094931;28;20521;-61
2022/08/15 12:03:18;;;;;;;6.22;4.05;;;;;;;23.03;55.95;98850.25;5095702;28;20128;-62
2022/08/15 12:06:14;;;;;;;11.38;4.22;;;;;;;23.03;56.07;98844.97;5094515;28;20166;-63
2022/08/15 12:09:19;;;;;;;6.43;4.25;;;;;;;23.05;55.80;98853.69;5095575;28;20047;-62
2022/08/15 12:12:15;;;;;;;5.30;3.92;;;;;;;23.05;55.84;98856.31;5094665;28;20051;-63
2022/08/15 12:15:24;;;;;;;8.18;4.32;;;;;;;23.06;55.73;98850.09;5094364;28;20046;-61
2022/08/15 12:18:18;;;;;;;4.90;4.07;;;;;;;23.06;55.74;98842.16;5095068;28;20086;-61
2022/08/15 12:21:05;;;;;;;5.25;4.20;;;;;;;23.06;56.00;98841.31;5095078;28;20415;-64
2022/08/15 12:23:55;;;;;;;11.55;4.60;;;;;;;23.05;55.95;98843.09;5095288;28;20085;-61
2022/08/15 12:26:39;;;;;;;5.88;3.28;;;;;;;23.06;55.75;98836.03;5094306;28;20082;-63
2022/08/15 12:29:26;;;;;;;6.75;4.45;;;;;;;23.06;55.74;98831.59;5095537;28;20050;-63
2022/08/15 12:32:12;;;;;;;6.32;4.13;;;;;;;23.07;55.77;98835.94;5094269;28;20051;-62
2022/08/15 12:34:56;;;;;;;7.90;4.30;;;;;;;23.07;55.73;98838.59;5095090;28;20055;-60
2022/08/15 12:37:43;;;;;;;8.35;4.10;;;;;;;23.07;55.56;98838.59;5095324;28;20050;-63
2022/08/15 12:40:29;;;;;;;6.32;4.32;;;;;;;23.08;55.63;98844.72;5094311;28;20055;-61
2022/08/15 12:43:13;;;;;;;5.57;3.63;;;;;;;23.09;55.58;98852.56;5094011;28;20135;-62
2022/08/15 12:45:57;;;;;;;5.95;4.15;;;;;;;23.08;55.60;98856.16;5094980;28;20051;-62
2022/08/15 12:48:43;;;;;;;6.28;4.30;;;;;;;23.07;55.77;98859.72;5094793;28;20054;-61
2022/08/15 12:51:27;;;;;;;8.77;3.92;;;;;;;23.05;55.99;98866.88;5094463;28;20161;-61
2022/08/15 12:54:12;;;;;;;9.02;4.13;;;;;;;23.01;55.78;98870.63;5093588;28;20170;-62
2022/08/15 12:56:59;;;;;;;7.45;3.45;;;;;;;22.98;56.05;98870.78;5094442;28;20055;-63
2022/08/15 12:59:46;;;;;;;6.28;3.47;;;;;;;22.96;56.30;98878.81;5093541;28;20055;-61
2022/08/15 13:02:30;;;;;;;7.50;4.30;;;;;;;22.95;56.75;98895.59;5094576;28;20093;-63
2022/08/15 13:05:33;;;;;;;9.07;4.30;;;;;;;22.91;56.80;98903.75;5093717;28;20047;-63
2022/08/15 13:08:17;;;;;;;9.10;4.03;;;;;;;22.85;57.44;98899.66;5093213;28;20051;-62
2022/08/15 13:11:02;;;;;;;12.45;4.63;;;;;;;22.81;57.71;98901.59;5093484;28;20055;-60
2022/08/15 13:13:47;;;;;;;9.93;4.82;;;;;;;22.77;57.87;98899.19;5093538;28;20059;-63
2022/08/15 13:16:31;;;;;;;10.10;5.18;;;;;;;22.77;57.84;98910.63;5094466;28;20043;-63
2022/08/15 13:19:27;;;;;;;8.45;5.43;;;;;;;22.76;58.07;98903.63;5093098;28;20534;-63
2022/08/15 13:25:14;;;;;;;9.32;5.60;;;;;;;;;;5094008;28;20509;-64
2022/08/15 13:27:57;;;;;;;8.70;4.68;;;;;;;22.81;58.21;98946.47;5094032;28;20047;-63
2022/08/15 13:30:42;;;;;;;;;;;;;;;22.80;57.96;98949.22;5094497;28;20097;-62
2022/08/15 13:33:26;;;;;;;8.10;4.90;;;;;;;;;;5093122;28;20061;-62
2022/08/15 13:36:12;;;;;;;11.18;4.70;;;;;;;;;;5093838;28;20096;-61
2022/08/15 13:39:04;;;;;;;9.23;4.78;;;;;;;22.80;58.22;98951.84;5092756;28;20509;-63
2022/08/15 13:41:49;;;;;;;8.95;4.78;;;;;;;22.79;58.24;98944.88;5093060;28;20070;-63
2022/08/15 13:44:40;;;;;;;8.35;4.78;;;;;;;22.77;58.30;98931.75;5092963;28;20449;-63
2022/08/15 13:47:25;;;;;;;8.23;4.25;;;;;;;22.77;58.39;98922.97;5093039;28;20063;-62
2022/08/15 13:50:10;;;;;;;4.70;3.63;;;;;;;22.77;58.12;98915.03;5093904;28;20521;-62
2022/08/15 13:52:54;;;;;;;5.90;3.72;;;;;;;22.78;58.17;98900.91;5094168;28;20181;-61